Time;durP1;ratioP1;P1;durP2;ratioP2;P2;SDS_P1;SDS_P2;PMS_P1;PMS_P2;Temp;Humidity;BMP_temperature;BMP_pressure;BME280_temperature;BME280_humidity;BME280_pressure;Samples;Min_cycle;Max_cycle;Signal;HPM_P1;HPM_P2
2023/01/02 00:00:41;;;;;;;2.62;1.00;;;12.20;99.90;;;;;;4421818;32;20181;-64
2023/01/02 00:03:07;;;;;;;0.60;0.60;;;12.20;99.90;;;;;;4420971;32;20061;-65
2023/01/02 00:05:34;;;;;;;0.55;0.55;;;12.20;99.90;;;;;;4424869;32;20085;-65
2023/01/02 00:08:00;;;;;;;2.47;1.48;;;12.20;99.90;;;;;;4422096;32;20085;-65
2023/01/02 00:10:25;;;;;;;0.77;0.50;;;12.20;99.90;;;;;;4417167;32;20082;-64
2023/01/02 00:12:51;;;;;;;1.17;0.95;;;12.20;99.90;;;;;;4408350;32;20073;-65
2023/01/02 00:15:16;;;;;;;0.50;0.50;;;12.20;99.90;;;;;;4413359;32;20092;-65
2023/01/02 00:17:42;;;;;;;7.60;1.62;;;12.20;99.90;;;;;;4421652;32;20122;-65
2023/01/02 00:20:08;;;;;;;0.82;0.77;;;12.20;99.90;;;;;;4420057;32;20074;-66
2023/01/02 00:22:33;;;;;;;0.47;0.47;;;12.20;99.90;;;;;;4422204;32;20524;-65
2023/01/02 00:24:59;;;;;;;0.60;0.60;;;12.10;99.90;;;;;;4422920;32;20069;-67
2023/01/02 00:27:24;;;;;;;0.75;0.75;;;12.20;99.90;;;;;;4418136;32;20113;-65
2023/01/02 00:29:50;;;;;;;2.42;0.70;;;12.20;99.90;;;;;;4418698;32;20078;-65
2023/01/02 00:32:15;;;;;;;0.43;0.43;;;12.20;99.90;;;;;;4419146;32;20513;-65
2023/01/02 00:34:40;;;;;;;0.70;0.70;;;12.20;99.90;;;;;;4423129;32;20077;-67
2023/01/02 00:37:06;;;;;;;4.85;2.28;;;12.20;99.90;;;;;;4420957;32;20088;-66
2023/01/02 00:39:31;;;;;;;1.90;0.75;;;12.10;99.90;;;;;;4420427;32;20468;-66
2023/01/02 00:41:57;;;;;;;0.73;0.73;;;12.10;99.90;;;;;;4409191;32;20085;-66
2023/01/02 00:44:22;;;;;;;1.05;0.60;;;12.10;99.90;;;;;;4412951;32;20098;-66
2023/01/02 00:46:48;;;;;;;0.52;0.52;;;12.10;99.90;;;;;;4421508;32;20514;-67
2023/01/02 00:49:13;;;;;;;2.17;1.25;;;12.10;99.90;;;;;;4420948;32;20065;-67
2023/01/02 00:51:39;;;;;;;0.60;0.60;;;12.10;99.90;;;;;;4423267;32;20112;-67
2023/01/02 00:54:04;;;;;;;0.85;0.85;;;12.10;99.90;;;;;;4422164;32;20061;-67
2023/01/02 00:56:30;;;;;;;0.55;0.55;;;12.10;99.90;;;;;;4419671;32;20077;-66
2023/01/02 00:58:55;;;;;;;0.45;0.45;;;12.10;99.90;;;;;;4419443;32;20081;-66
2023/01/02 01:01:21;;;;;;;0.62;0.62;;;12.10;99.90;;;;;;4421008;32;20097;-66
2023/01/02 01:03:46;;;;;;;0.60;0.60;;;12.20;99.90;;;;;;4420259;32;20085;-66
2023/01/02 01:06:13;;;;;;;0.40;0.40;;;12.10;99.90;;;;;;4421892;32;20077;-66
2023/01/02 01:08:39;;;;;;;1.25;0.60;;;12.10;99.90;;;;;;4407222;32;20098;-66
2023/01/02 01:11:08;;;;;;;1.10;0.93;;;12.10;99.90;;;;;;4395945;32;20073;-65
2023/01/02 01:13:33;;;;;;;4.62;1.23;;;12.00;99.90;;;;;;4395443;32;20180;-65
2023/01/02 01:16:06;;;;;;;0.98;0.93;;;12.00;99.90;;;;;;4419080;32;20050;-66
2023/01/02 01:18:31;;;;;;;1.10;1.00;;;12.00;99.90;;;;;;4423247;32;20177;-66
2023/01/02 01:20:57;;;;;;;1.15;0.80;;;12.00;99.90;;;;;;4409312;32;20112;-66
2023/01/02 01:23:22;;;;;;;1.37;0.85;;;12.00;99.90;;;;;;4425583;32;20144;-66
2023/01/02 01:25:48;;;;;;;0.40;0.40;;;11.90;99.90;;;;;;4408100;32;20589;-66
2023/01/02 01:28:14;;;;;;;2.12;1.02;;;11.90;99.90;;;;;;4422291;32;20081;-66
2023/01/02 01:30:39;;;;;;;2.28;1.80;;;11.90;99.90;;;;;;4425369;32;20090;-65
2023/01/02 01:33:05;;;;;;;0.50;0.50;;;11.90;99.90;;;;;;4423620;32;20093;-66
2023/01/02 01:35:32;;;;;;;1.73;0.60;;;11.90;99.90;;;;;;4423272;32;20062;-66
2023/01/02 01:37:58;;;;;;;0.40;0.40;;;11.90;99.90;;;;;;4425146;32;20116;-66
2023/01/02 01:40:24;;;;;;;12.30;1.25;;;11.90;99.90;;;;;;4402302;32;20097;-66
2023/01/02 01:42:49;;;;;;;9.20;1.90;;;11.90;99.90;;;;;;4394743;32;20069;-66
2023/01/02 01:45:16;;;;;;;7.12;0.60;;;11.90;99.90;;;;;;4415805;32;20105;-66
2023/01/02 01:47:51;;;;;;;0.45;0.45;;;11.90;99.90;;;;;;4422148;32;20061;-66
2023/01/02 01:50:29;;;;;;;0.70;0.70;;;11.90;99.90;;;;;;4406380;32;20078;-66
2023/01/02 01:52:57;;;;;;;0.30;0.30;;;11.90;99.90;;;;;;4424771;32;20058;-66
2023/01/02 01:55:29;;;;;;;1.02;0.93;;;11.90;99.90;;;;;;4423209;32;20098;-66
2023/01/02 01:58:01;;;;;;;0.50;0.50;;;11.90;99.90;;;;;;4422188;32;20101;-66
2023/01/02 02:00:27;;;;;;;1.00;0.73;;;11.90;99.90;;;;;;4424574;32;20493;-66
2023/01/02 02:02:58;;;;;;;2.08;1.05;;;12.00;99.90;;;;;;4422907;32;20056;-66
2023/01/02 02:05:28;;;;;;;0.75;0.75;;;11.90;99.90;;;;;;4407105;32;20086;-66
2023/01/02 02:08:18;;;;;;;8.23;3.27;;;11.90;99.90;;;;;;4421835;32;20144;-66
2023/01/02 02:10:45;;;;;;;0.90;0.75;;;11.90;99.90;;;;;;4413758;32;20143;-65
2023/01/02 02:13:11;;;;;;;1.85;1.20;;;11.90;99.90;;;;;;4409367;32;20549;-66
2023/01/02 02:15:52;;;;;;;0.68;0.68;;;11.90;99.90;;;;;;4419821;32;20053;-66
2023/01/02 02:18:26;;;;;;;;;;;11.90;99.90;;;;;;4424078;32;20061;-66
2023/01/02 02:21:23;;;;;;;1.08;1.02;;;12.00;99.90;;;;;;4420815;32;20024;-66
2023/01/02 02:24:10;;;;;;;0.40;0.40;;;12.00;99.90;;;;;;4412707;32;20077;-66
2023/01/02 02:27:12;;;;;;;2.70;1.05;;;12.00;99.90;;;;;;4413053;32;20420;-66
2023/01/02 02:30:02;;;;;;;1.33;0.70;;;12.00;99.90;;;;;;4411391;32;20085;-66
2023/01/02 02:32:55;;;;;;;7.05;1.27;;;12.00;99.90;;;;;;4423177;32;20078;-65
2023/01/02 02:35:48;;;;;;;0.32;0.32;;;12.10;99.90;;;;;;4410878;32;20089;-65
2023/01/02 02:38:44;;;;;;;4.18;2.05;;;12.10;99.90;;;;;;4422573;32;20081;-65
2023/01/02 02:41:19;;;;;;;0.50;0.50;;;12.20;99.90;;;;;;4398382;32;20231;-65
2023/01/02 02:44:08;;;;;;;0.47;0.47;;;12.20;99.90;;;;;;4411692;32;20065;-66
2023/01/02 02:46:46;;;;;;;1.23;1.10;;;12.20;99.90;;;;;;4423228;32;20828;-65
2023/01/02 02:49:27;;;;;;;1.17;0.88;;;12.30;99.90;;;;;;4407626;32;20123;-65
2023/01/02 02:52:11;;;;;;;0.40;0.40;;;12.40;99.90;;;;;;4422018;32;20057;-66
2023/01/02 02:54:47;;;;;;;3.10;1.12;;;12.50;99.90;;;;;;4408440;32;20109;-65
2023/01/02 02:57:13;;;;;;;0.70;0.70;;;12.50;99.90;;;;;;4420799;32;20327;-65
2023/01/02 02:59:40;;;;;;;5.15;1.55;;;12.50;99.90;;;;;;4421160;32;20090;-66
2023/01/02 03:02:06;;;;;;;0.50;0.50;;;12.60;99.90;;;;;;4406486;32;20144;-66
2023/01/02 03:04:32;;;;;;;1.08;0.98;;;12.60;99.90;;;;;;4422875;32;20145;-66
2023/01/02 03:07:10;;;;;;;2.00;0.95;;;12.60;99.90;;;;;;4424808;32;20116;-65
2023/01/02 03:09:55;;;;;;;1.45;0.95;;;12.60;99.90;;;;;;4408215;32;20429;-65
2023/01/02 03:12:36;;;;;;;0.47;0.47;;;12.60;99.90;;;;;;4407898;32;20094;-65
2023/01/02 03:15:10;;;;;;;;;;;12.70;99.90;;;;;;4415157;32;20101;-66
2023/01/02 03:17:47;;;;;;;0.55;0.55;;;12.70;99.90;;;;;;4422378;32;19969;-66
2023/01/02 03:20:16;;;;;;;0.55;0.55;;;12.70;99.90;;;;;;4420197;32;20101;-66
2023/01/02 03:22:48;;;;;;;5.37;1.33;;;12.70;99.90;;;;;;4421668;32;20081;-66
2023/01/02 03:25:15;;;;;;;0.77;0.77;;;12.80;99.90;;;;;;4421799;32;20226;-66
2023/01/02 03:27:45;;;;;;;5.05;2.97;;;12.70;99.90;;;;;;4409212;32;20098;-66
2023/01/02 03:30:16;;;;;;;0.55;0.45;;;12.80;99.90;;;;;;4421514;32;20512;-66
2023/01/02 03:32:47;;;;;;;0.50;0.50;;;12.80;99.90;;;;;;4422103;32;20089;-66
2023/01/02 03:35:18;;;;;;;4.68;0.85;;;12.90;99.90;;;;;;4421736;32;20082;-66
2023/01/02 03:37:50;;;;;;;0.90;0.77;;;13.00;99.90;;;;;;4408032;32;20514;-66
2023/01/02 03:40:21;;;;;;;1.05;1.00;;;13.00;99.90;;;;;;4403732;32;20121;-66
2023/01/02 03:42:50;;;;;;;;;;;13.00;99.90;;;;;;4407182;32;20053;-65
2023/01/02 03:45:22;;;;;;;0.50;0.50;;;13.00;99.90;;;;;;4411993;32;19949;-66
2023/01/02 03:48:13;;;;;;;13.40;1.33;;;13.00;99.90;;;;;;4421313;32;20069;-66
2023/01/02 03:50:50;;;;;;;0.90;0.68;;;13.00;99.90;;;;;;4410343;32;20565;-66
2023/01/02 03:53:16;;;;;;;0.40;0.40;;;13.10;99.90;;;;;;4407938;32;20069;-66
2023/01/02 03:55:53;;;;;;;0.52;0.52;;;13.10;99.90;;;;;;4421320;32;20540;-66
2023/01/02 03:58:34;;;;;;;0.50;0.50;;;13.20;99.90;;;;;;4423153;32;20076;-66
2023/01/02 04:01:05;;;;;;;4.43;2.30;;;13.10;99.90;;;;;;4421161;32;20066;-66
2023/01/02 04:03:37;;;;;;;0.88;0.68;;;13.10;99.90;;;;;;4422163;32;20070;-66
2023/01/02 04:06:08;;;;;;;0.73;0.73;;;13.10;99.90;;;;;;4406125;32;20126;-66
2023/01/02 04:08:44;;;;;;;0.43;0.43;;;13.10;99.90;;;;;;4425185;32;20434;-66
2023/01/02 04:11:15;;;;;;;0.65;0.65;;;13.20;99.90;;;;;;4410323;32;20094;-66
2023/01/02 04:13:47;;;;;;;0.60;0.60;;;13.20;99.90;;;;;;4409342;32;20086;-66
2023/01/02 04:16:19;;;;;;;2.90;0.85;;;13.20;99.90;;;;;;4419332;32;20090;-66
2023/01/02 04:18:53;;;;;;;0.57;0.57;;;13.30;99.90;;;;;;4422290;32;20120;-66
2023/01/02 04:21:22;;;;;;;0.60;0.60;;;13.30;99.90;;;;;;4422488;32;20112;-66
2023/01/02 04:23:54;;;;;;;6.10;0.70;;;13.20;99.90;;;;;;4421353;32;20058;-66
2023/01/02 04:26:25;;;;;;;3.70;0.70;;;13.20;99.90;;;;;;4422838;32;20126;-66
2023/01/02 04:28:51;;;;;;;1.05;0.90;;;13.20;99.90;;;;;;4422274;32;20064;-66
2023/01/02 04:31:21;;;;;;;0.40;0.40;;;13.30;99.90;;;;;;4421971;32;20426;-66
2023/01/02 04:33:55;;;;;;;0.70;0.70;;;13.30;99.90;;;;;;4420934;32;20556;-66
2023/01/02 04:36:21;;;;;;;0.30;0.30;;;13.30;99.90;;;;;;4423698;32;20085;-65
2023/01/02 04:38:47;;;;;;;1.02;0.77;;;13.40;99.90;;;;;;4421381;32;20088;-65
2023/01/02 04:41:25;;;;;;;0.43;0.43;;;13.40;99.90;;;;;;4411524;32;20123;-65
2023/01/02 04:43:52;;;;;;;0.40;0.40;;;13.40;99.90;;;;;;4394411;32;20619;-65
2023/01/02 04:46:17;;;;;;;0.40;0.40;;;13.40;99.90;;;;;;4419166;32;20529;-66
2023/01/02 04:48:43;;;;;;;0.50;0.50;;;13.50;99.90;;;;;;4420573;32;20155;-65
2023/01/02 04:51:08;;;;;;;0.70;0.70;;;13.50;99.90;;;;;;4424318;32;20545;-65
2023/01/02 04:53:33;;;;;;;2.92;0.68;;;13.50;99.90;;;;;;4424613;32;20072;-66
2023/01/02 04:55:59;;;;;;;2.05;0.50;;;13.50;99.90;;;;;;4423416;32;20116;-66
2023/01/02 04:58:26;;;;;;;0.70;0.70;;;13.50;99.90;;;;;;4424669;32;20489;-66
2023/01/02 05:00:52;;;;;;;0.62;0.62;;;13.60;99.90;;;;;;4424093;32;20194;-65
2023/01/02 05:03:18;;;;;;;0.30;0.30;;;13.60;99.90;;;;;;4422892;32;20092;-66
2023/01/02 05:05:43;;;;;;;2.62;0.90;;;13.60;99.90;;;;;;4425780;32;20464;-66
2023/01/02 05:08:09;;;;;;;0.40;0.40;;;13.60;99.90;;;;;;4423740;32;20077;-66
2023/01/02 05:10:34;;;;;;;17.35;0.82;;;13.60;99.90;;;;;;4419523;32;20156;-65
2023/01/02 05:12:59;;;;;;;0.68;0.57;;;13.60;99.90;;;;;;4410374;32;20644;-65
2023/01/02 05:15:26;;;;;;;1.45;0.60;;;13.60;99.90;;;;;;4415927;32;20166;-65
2023/01/02 05:17:51;;;;;;;4.95;0.73;;;13.60;99.90;;;;;;4424103;32;20613;-66
2023/01/02 05:20:17;;;;;;;0.55;0.50;;;13.70;99.90;;;;;;4422522;32;20099;-66
2023/01/02 05:23:50;;;;;;;0.90;0.80;;;13.70;99.90;;;;;;4424771;32;20143;-66
2023/01/02 05:25:33;;;;;;;0.50;0.50;;;13.70;99.90;;;;;;4412351;32;20521;-66
2023/01/02 05:28:00;;;;;;;0.62;0.62;;;13.70;99.90;;;;;;4423503;32;20537;-66
2023/01/02 05:30:25;;;;;;;0.60;0.60;;;13.70;99.90;;;;;;4423061;32;20057;-66
2023/01/02 05:32:51;;;;;;;14.63;3.33;;;13.80;99.90;;;;;;4423114;32;20106;-67
2023/01/02 05:35:16;;;;;;;1.17;0.95;;;13.80;99.90;;;;;;4422363;32;20161;-66
2023/01/02 05:37:42;;;;;;;1.27;0.85;;;13.70;99.90;;;;;;4425007;32;20065;-66
2023/01/02 05:40:08;;;;;;;1.60;1.08;;;13.70;99.90;;;;;;4417577;32;20516;-66
2023/01/02 05:42:34;;;;;;;0.45;0.45;;;13.70;99.90;;;;;;4407503;32;20427;-66
2023/01/02 05:44:59;;;;;;;1.20;0.80;;;13.70;99.90;;;;;;4398710;32;20073;-66
2023/01/02 05:47:25;;;;;;;1.08;0.70;;;13.70;99.90;;;;;;4421049;32;20513;-66
2023/01/02 05:49:50;;;;;;;0.50;0.50;;;13.70;99.90;;;;;;4423014;32;20173;-66
2023/01/02 05:52:16;;;;;;;0.60;0.60;;;13.80;99.90;;;;;;4424800;32;20111;-66
2023/01/02 05:54:41;;;;;;;0.40;0.40;;;13.80;99.90;;;;;;4422276;32;20089;-66
2023/01/02 05:57:07;;;;;;;0.98;0.60;;;13.80;99.90;;;;;;4422450;32;21669;-66
2023/01/02 05:59:32;;;;;;;0.50;0.50;;;13.80;99.90;;;;;;4421811;32;20123;-66
2023/01/02 06:01:58;;;;;;;0.50;0.50;;;13.80;99.90;;;;;;4419046;32;20089;-65
2023/01/02 06:04:23;;;;;;;0.50;0.50;;;13.90;99.90;;;;;;4401997;32;20441;-66
2023/01/02 06:06:49;;;;;;;10.60;0.85;;;13.90;99.90;;;;;;4414201;32;20078;-66
2023/01/02 06:09:15;;;;;;;2.72;1.10;;;14.00;99.90;;;;;;4412687;32;20065;-66
2023/01/02 06:11:42;;;;;;;0.30;0.30;;;14.00;99.90;;;;;;4385464;32;20140;-65
2023/01/02 06:14:09;;;;;;;0.50;0.50;;;14.00;99.90;;;;;;4402334;32;20159;-66
2023/01/02 06:16:35;;;;;;;0.70;0.70;;;14.00;99.90;;;;;;4415296;32;20789;-65
2023/01/02 06:19:00;;;;;;;1.50;1.20;;;13.90;99.90;;;;;;4422634;32;20085;-66
2023/01/02 06:21:26;;;;;;;0.52;0.52;;;13.90;99.90;;;;;;4421086;32;20094;-67
2023/01/02 06:23:56;;;;;;;1.58;0.50;;;13.90;99.90;;;;;;4424936;32;20093;-66
2023/01/02 06:26:22;;;;;;;0.62;0.62;;;13.80;99.90;;;;;;4406892;32;20447;-66
2023/01/02 06:28:50;;;;;;;0.47;0.47;;;13.90;99.90;;;;;;4406771;32;20426;-67
2023/01/02 06:31:17;;;;;;;0.57;0.55;;;13.90;99.90;;;;;;4407810;32;20070;-66
2023/01/02 06:33:44;;;;;;;10.02;0.82;;;13.90;99.90;;;;;;4396263;32;20361;-66
2023/01/02 06:36:12;;;;;;;0.43;0.43;;;13.90;99.90;;;;;;4415505;32;20093;-65
2023/01/02 06:38:38;;;;;;;4.87;1.35;;;13.90;99.90;;;;;;4419629;32;20505;-67
2023/01/02 06:41:05;;;;;;;1.27;1.00;;;13.90;99.90;;;;;;4412119;32;20105;-66
2023/01/02 06:43:31;;;;;;;0.55;0.55;;;14.00;99.90;;;;;;4409423;32;20058;-66
2023/01/02 06:45:58;;;;;;;0.50;0.50;;;14.00;99.90;;;;;;4418405;32;20151;-67
2023/01/02 06:48:24;;;;;;;0.50;0.50;;;14.00;99.90;;;;;;4408999;32;20073;-66
2023/01/02 06:50:49;;;;;;;0.60;0.60;;;14.10;99.90;;;;;;4421490;32;20077;-64
2023/01/02 06:53:15;;;;;;;0.40;0.40;;;14.10;99.90;;;;;;4423037;32;20085;-66
2023/01/02 06:55:51;;;;;;;0.75;0.75;;;14.10;99.90;;;;;;4423949;32;20098;-66
2023/01/02 06:58:16;;;;;;;0.68;0.65;;;14.00;99.90;;;;;;4425694;32;20084;-66
2023/01/02 07:00:42;;;;;;;0.50;0.50;;;14.00;99.90;;;;;;4420965;32;20074;-65
2023/01/02 07:03:07;;;;;;;0.50;0.50;;;14.00;99.90;;;;;;4414525;32;20106;-65
2023/01/02 07:05:33;;;;;;;0.35;0.35;;;14.00;99.90;;;;;;4416347;32;20273;-65
2023/01/02 07:07:58;;;;;;;0.50;0.50;;;14.00;99.90;;;;;;4420136;32;20081;-66
2023/01/02 07:10:24;;;;;;;1.23;0.75;;;14.00;99.90;;;;;;4416982;32;20494;-65
2023/01/02 07:12:49;;;;;;;0.43;0.43;;;14.00;99.90;;;;;;4420802;32;20074;-65
2023/01/02 07:15:15;;;;;;;1.02;0.95;;;14.00;99.90;;;;;;4414962;32;20082;-66
2023/01/02 07:17:40;;;;;;;0.35;0.35;;;13.90;99.90;;;;;;4421484;32;20111;-66
2023/01/02 07:20:06;;;;;;;1.30;1.20;;;14.00;99.90;;;;;;4421492;32;20065;-66
2023/01/02 07:22:32;;;;;;;0.40;0.40;;;14.00;99.90;;;;;;4425210;32;20619;-66
2023/01/02 07:24:57;;;;;;;0.60;0.60;;;13.90;99.90;;;;;;4421267;32;20098;-65
2023/01/02 07:27:22;;;;;;;3.60;1.58;;;13.90;99.90;;;;;;4423057;32;20089;-65
2023/01/02 07:29:48;;;;;;;0.90;0.90;;;13.90;99.90;;;;;;4419062;32;20077;-65
2023/01/02 07:33:21;;;;;;;0.57;0.57;;;13.90;99.90;;;;;;4443493;32;94011;-66
2023/01/02 07:35:46;;;;;;;0.98;0.73;;;13.90;99.90;;;;;;4438549;32;20072;-66
2023/01/02 07:38:12;;;;;;;0.62;0.62;;;13.90;99.90;;;;;;4444852;32;20068;-66
2023/01/02 07:40:37;;;;;;;5.37;0.75;;;13.90;99.90;;;;;;4438869;32;20089;-66
2023/01/02 07:43:03;;;;;;;0.70;0.70;;;14.00;99.90;;;;;;4431311;32;20455;-66
2023/01/02 07:45:28;;;;;;;0.77;0.77;;;14.00;99.90;;;;;;4443607;32;20123;-67
2023/01/02 07:47:54;;;;;;;0.70;0.70;;;14.00;99.90;;;;;;4455719;32;20512;-66
2023/01/02 07:50:19;;;;;;;0.50;0.50;;;14.00;99.90;;;;;;4452234;32;20064;-66
2023/01/02 07:52:45;;;;;;;0.50;0.50;;;14.00;99.90;;;;;;4453991;32;20119;-66
2023/01/02 07:55:10;;;;;;;0.60;0.60;;;14.00;99.90;;;;;;4453279;32;20089;-66
2023/01/02 07:57:35;;;;;;;3.28;0.65;;;14.00;99.90;;;;;;4454458;32;20065;-66
2023/01/02 08:00:03;;;;;;;0.45;0.40;;;14.00;99.90;;;;;;4453058;32;21074;-67
2023/01/02 08:02:28;;;;;;;0.60;0.60;;;14.00;99.90;;;;;;4424037;32;20159;-66
2023/01/02 08:04:54;;;;;;;0.50;0.50;;;14.10;99.90;;;;;;4437649;32;20166;-66
2023/01/02 08:07:21;;;;;;;5.20;1.40;;;14.10;99.90;;;;;;4443348;32;20077;-66
2023/01/02 08:09:47;;;;;;;0.50;0.50;;;14.10;99.90;;;;;;4451418;32;20162;-66
2023/01/02 08:12:12;;;;;;;0.40;0.40;;;14.10;99.90;;;;;;4439711;32;20067;-66
2023/01/02 08:14:38;;;;;;;0.32;0.32;;;14.10;99.90;;;;;;4441766;32;20111;-66
2023/01/02 08:17:03;;;;;;;0.57;0.55;;;14.10;99.90;;;;;;4451294;32;20082;-67
2023/01/02 08:19:29;;;;;;;0.40;0.40;;;14.10;99.90;;;;;;4451673;32;20111;-67
2023/01/02 08:21:54;;;;;;;0.45;0.45;;;14.00;99.90;;;;;;4450937;32;20084;-66
2023/01/02 08:24:20;;;;;;;2.60;1.62;;;14.10;99.90;;;;;;4454038;32;20092;-66
2023/01/02 08:26:45;;;;;;;0.40;0.40;;;14.10;99.90;;;;;;4452568;32;20612;-66
2023/01/02 08:29:11;;;;;;;0.85;0.85;;;14.20;99.90;;;;;;4454329;32;20060;-66
2023/01/02 08:31:36;;;;;;;0.95;0.90;;;14.20;99.90;;;;;;4445760;32;20087;-66
2023/01/02 08:34:02;;;;;;;0.37;0.37;;;14.20;99.90;;;;;;4434957;32;20135;-66
2023/01/02 08:36:27;;;;;;;1.20;0.77;;;14.20;99.90;;;;;;4440570;32;20706;-66
2023/01/02 08:38:53;;;;;;;0.55;0.55;;;14.30;99.90;;;;;;4453391;32;20505;-66
2023/01/02 08:41:39;;;;;;;1.55;0.95;;;14.30;99.90;;;;;;4443738;32;20110;-66
2023/01/02 08:44:05;;;;;;;0.62;0.62;;;14.30;99.90;;;;;;4431713;32;20331;-66
2023/01/02 08:46:31;;;;;;;0.40;0.40;;;14.30;99.90;;;;;;4440658;32;20057;-67
2023/01/02 08:48:57;;;;;;;0.60;0.60;;;14.40;99.90;;;;;;4441324;32;20683;-66
2023/01/02 08:51:23;;;;;;;0.45;0.45;;;14.40;99.90;;;;;;4441396;32;20151;-66
2023/01/02 08:53:48;;;;;;;0.95;0.95;;;14.40;99.90;;;;;;4443569;32;20074;-66
2023/01/02 08:56:20;;;;;;;3.92;1.85;;;14.50;99.90;;;;;;4442159;32;20541;-66
2023/01/02 08:58:50;;;;;;;0.55;0.55;;;14.60;99.90;;;;;;4440969;32;20072;-66
2023/01/02 09:01:16;;;;;;;0.98;0.93;;;14.60;99.90;;;;;;4441774;32;20049;-63
2023/01/02 09:03:41;;;;;;;0.60;0.60;;;14.60;99.90;;;;;;4424762;32;20446;-66
2023/01/02 09:06:07;;;;;;;1.37;1.02;;;14.60;99.90;;;;;;4430247;32;20073;-66
2023/01/02 09:08:32;;;;;;;1.85;1.00;;;14.60;99.90;;;;;;4441205;32;20073;-67
2023/01/02 09:10:58;;;;;;;1.05;0.95;;;14.70;99.90;;;;;;4433428;32;20097;-66
2023/01/02 09:13:23;;;;;;;0.93;0.93;;;14.70;99.90;;;;;;4429283;32;20371;-65
2023/01/02 09:15:49;;;;;;;0.50;0.50;;;14.70;99.90;;;;;;4437846;32;20243;-65
2023/01/02 09:18:14;;;;;;;5.62;0.88;;;14.70;99.90;;;;;;4441408;32;20631;-65
2023/01/02 09:20:40;;;;;;;0.40;0.40;;;14.80;99.90;;;;;;4439755;32;20061;-64
2023/01/02 09:23:05;;;;;;;2.08;1.08;;;14.80;99.90;;;;;;4442809;32;20441;-66
2023/01/02 09:25:31;;;;;;;0.73;0.73;;;14.80;99.90;;;;;;4441706;32;20077;-66
2023/01/02 09:27:56;;;;;;;0.60;0.60;;;14.80;99.90;;;;;;4442818;32;20108;-66
2023/01/02 09:30:22;;;;;;;0.50;0.50;;;14.80;99.90;;;;;;4441375;32;20088;-65
2023/01/02 09:32:49;;;;;;;0.90;0.70;;;14.90;99.90;;;;;;4426980;32;20064;-65
2023/01/02 09:35:15;;;;;;;0.70;0.70;;;14.90;99.90;;;;;;4427292;32;20065;-66
2023/01/02 09:37:40;;;;;;;0.65;0.65;;;14.90;99.90;;;;;;4438665;32;20136;-66
2023/01/02 09:40:07;;;;;;;0.50;0.50;;;15.00;99.90;;;;;;4435967;32;20548;-66
2023/01/02 09:42:32;;;;;;;6.82;2.83;;;15.00;99.90;;;;;;4427195;32;20089;-66
2023/01/02 09:45:01;;;;;;;7.37;0.73;;;15.00;99.90;;;;;;4435045;32;20096;-67
2023/01/02 09:47:30;;;;;;;0.80;0.80;;;15.00;99.90;;;;;;4440513;32;20497;-66
2023/01/02 09:50:02;;;;;;;0.50;0.50;;;15.00;99.90;;;;;;4442535;32;20060;-66
2023/01/02 09:52:34;;;;;;;0.60;0.60;;;15.00;99.90;;;;;;4440350;32;20540;-66
2023/01/02 09:54:59;;;;;;;0.50;0.50;;;15.10;99.90;;;;;;4438168;32;20069;-66
2023/01/02 09:57:37;;;;;;;0.30;0.30;;;15.10;99.90;;;;;;4441902;32;20097;-66
2023/01/02 10:00:14;;;;;;;0.47;0.47;;;15.10;99.90;;;;;;4438962;32;20076;-66
2023/01/02 10:03:16;;;;;;;0.55;0.55;;;15.10;99.90;;;;;;4428885;32;20454;-66
2023/01/02 10:06:20;;;;;;;0.43;0.43;;;15.10;99.90;;;;;;4428151;32;20090;-66
2023/01/02 10:09:10;;;;;;;0.40;0.40;;;15.20;99.90;;;;;;4441611;32;20160;-67
2023/01/02 10:11:55;;;;;;;0.43;0.43;;;15.20;99.90;;;;;;4428208;32;20196;-66
2023/01/02 10:14:37;;;;;;;0.40;0.40;;;15.20;99.90;;;;;;4430181;32;20527;-66
2023/01/02 10:17:05;;;;;;;0.40;0.40;;;15.30;99.90;;;;;;4441363;32;20149;-66
2023/01/02 10:19:55;;;;;;;0.68;0.68;;;15.30;99.90;;;;;;4443698;32;20552;-66
2023/01/02 10:22:31;;;;;;;1.33;0.88;;;15.30;99.90;;;;;;4441727;32;20088;-66
2023/01/02 10:25:14;;;;;;;1.45;1.15;;;15.30;99.90;;;;;;4443742;32;20069;-64
2023/01/02 10:27:48;;;;;;;0.50;0.50;;;15.40;99.90;;;;;;4439032;32;20183;-65
2023/01/02 10:30:19;;;;;;;1.50;0.50;;;15.40;99.90;;;;;;4441167;32;20100;-64
2023/01/02 10:32:52;;;;;;;1.70;1.37;;;15.40;99.90;;;;;;4422094;32;20425;-66
2023/01/02 10:35:31;;;;;;;0.82;0.82;;;15.40;99.90;;;;;;4426211;32;20131;-65
2023/01/02 10:37:56;;;;;;;0.75;0.75;;;15.40;99.90;;;;;;4435758;32;20084;-65
2023/01/02 10:40:23;;;;;;;2.60;1.33;;;15.40;99.90;;;;;;4435082;32;20131;-65
2023/01/02 10:42:53;;;;;;;0.50;0.50;;;15.30;99.90;;;;;;4425342;32;20104;-65
2023/01/02 10:45:18;;;;;;;1.20;0.90;;;15.30;99.90;;;;;;4431116;32;20072;-66
2023/01/02 10:47:45;;;;;;;2.47;0.93;;;15.30;99.90;;;;;;4443369;32;20086;-67
2023/01/02 10:50:18;;;;;;;1.75;0.60;;;15.30;99.90;;;;;;4441382;32;20122;-66
2023/01/02 10:52:53;;;;;;;0.50;0.50;;;15.30;99.90;;;;;;4437519;32;21285;-66
2023/01/02 10:55:39;;;;;;;0.68;0.68;;;15.30;99.90;;;;;;4441638;32;20436;-66
2023/01/02 10:58:12;;;;;;;0.77;0.77;;;15.20;99.90;;;;;;4441074;32;20085;-67
2023/01/02 11:00:37;;;;;;;0.80;0.80;;;15.30;99.90;;;;;;4437637;32;20099;-67
2023/01/02 11:03:12;;;;;;;0.47;0.47;;;15.30;99.90;;;;;;4426785;32;20096;-65
2023/01/02 11:05:45;;;;;;;0.80;0.75;;;15.30;99.90;;;;;;4427181;32;20497;-65
2023/01/02 11:08:15;;;;;;;0.40;0.40;;;15.20;99.90;;;;;;4437568;32;20057;-65
2023/01/02 11:10:42;;;;;;;0.40;0.40;;;15.30;99.90;;;;;;4430786;32;20474;-66
2023/01/02 11:13:12;;;;;;;6.12;1.02;;;15.20;99.90;;;;;;4425191;32;20143;-66
2023/01/02 11:15:49;;;;;;;0.62;0.62;;;15.20;99.90;;;;;;4434019;32;20066;-65
2023/01/02 11:18:20;;;;;;;1.20;0.68;;;15.20;99.90;;;;;;4439006;32;20092;-65
2023/01/02 11:20:50;;;;;;;0.40;0.40;;;15.20;99.90;;;;;;4437697;32;20069;-66
2023/01/02 11:23:18;;;;;;;0.98;0.85;;;15.10;99.90;;;;;;4436078;32;20061;-66
2023/01/02 11:25:43;;;;;;;0.50;0.50;;;15.00;99.90;;;;;;4440704;32;20120;-67
2023/01/02 11:28:17;;;;;;;1.25;1.15;;;15.00;99.90;;;;;;4440249;32;20532;-66
2023/01/02 11:30:45;;;;;;;0.55;0.55;;;15.00;99.90;;;;;;4435975;32;20620;-66
2023/01/02 11:33:26;;;;;;;8.38;2.70;;;15.00;99.90;;;;;;4419512;32;20057;-66
2023/01/02 11:35:55;;;;;;;7.65;0.93;;;15.00;99.90;;;;;;4425974;32;20103;-66
2023/01/02 11:38:24;;;;;;;0.60;0.60;;;15.00;99.90;;;;;;4437641;32;20096;-66
2023/01/02 11:40:53;;;;;;;0.75;0.70;;;15.00;99.90;;;;;;4431505;32;20077;-65
2023/01/02 11:43:54;;;;;;;0.90;0.82;;;15.00;99.90;;;;;;4427025;32;20092;-65
2023/01/02 11:46:25;;;;;;;0.45;0.45;;;15.00;99.90;;;;;;4438894;32;20160;-66
2023/01/02 11:48:54;;;;;;;1.40;1.12;;;15.10;99.90;;;;;;4441732;32;20121;-66
2023/01/02 11:51:20;;;;;;;1.85;1.52;;;15.10;99.90;;;;;;4438265;32;20073;-66
2023/01/02 11:53:50;;;;;;;0.68;0.68;;;15.00;99.90;;;;;;4440703;32;20081;-66
2023/01/02 11:56:25;;;;;;;0.60;0.60;;;15.00;99.90;;;;;;4439852;32;20088;-67
2023/01/02 11:59:01;;;;;;;0.50;0.50;;;15.00;99.90;;;;;;4442284;32;20480;-67
2023/01/02 12:01:29;;;;;;;0.50;0.50;;;15.00;99.90;;;;;;4436275;32;20354;-66
2023/01/02 12:03:55;;;;;;;0.55;0.55;;;15.00;99.90;;;;;;4419385;32;20528;-66
2023/01/02 12:06:24;;;;;;;3.42;0.95;;;15.00;99.90;;;;;;4426150;32;20081;-67
2023/01/02 12:09:10;;;;;;;0.60;0.60;;;15.00;99.90;;;;;;4438651;32;20052;-66
2023/01/02 12:11:54;;;;;;;0.50;0.50;;;15.10;99.90;;;;;;4425973;32;20721;-66
2023/01/02 12:14:26;;;;;;;0.77;0.77;;;15.10;99.90;;;;;;4429574;32;20127;-67
2023/01/02 12:17:06;;;;;;;1.02;0.93;;;15.00;99.90;;;;;;4442120;32;20469;-66
2023/01/02 12:20:05;;;;;;;0.50;0.50;;;15.00;99.90;;;;;;4440297;32;20088;-67
2023/01/02 12:23:02;;;;;;;1.27;0.65;;;15.00;99.90;;;;;;4441652;32;20649;-67
2023/01/02 12:25:52;;;;;;;1.85;1.30;;;15.00;99.90;;;;;;4440144;32;20088;-66
2023/01/02 12:28:28;;;;;;;0.65;0.65;;;15.00;99.90;;;;;;4443083;32;20073;-64
2023/01/02 12:31:21;;;;;;;0.40;0.40;;;15.00;99.90;;;;;;4442486;32;20100;-67
2023/01/02 12:34:18;;;;;;;0.73;0.70;;;15.00;99.90;;;;;;4421731;32;20215;-64
2023/01/02 12:36:58;;;;;;;0.52;0.47;;;15.00;99.90;;;;;;4429275;32;20081;-65
2023/01/02 12:39:51;;;;;;;0.60;0.60;;;15.00;99.90;;;;;;4439467;32;20102;-65
2023/01/02 12:42:39;;;;;;;1.52;1.42;;;15.10;99.90;;;;;;4420474;32;20077;-65
2023/01/02 12:45:20;;;;;;;0.80;0.77;;;15.00;99.90;;;;;;4431108;32;20076;-66
2023/01/02 12:48:13;;;;;;;0.70;0.70;;;15.00;99.90;;;;;;4440264;32;20249;-66
2023/01/02 12:51:18;;;;;;;0.60;0.60;;;14.90;99.90;;;;;;4441747;32;20127;-66
2023/01/02 12:54:10;;;;;;;0.40;0.40;;;14.90;99.90;;;;;;4432568;32;20516;-65
2023/01/02 12:57:04;;;;;;;5.25;1.48;;;14.80;99.90;;;;;;4442451;32;20209;-65
2023/01/02 13:00:10;;;;;;;20.83;1.05;;;14.70;99.90;;;;;;4438946;32;20134;-65
2023/01/02 13:02:56;;;;;;;0.40;0.40;;;14.70;99.90;;;;;;4425052;32;20106;-64
2023/01/02 13:05:32;;;;;;;0.60;0.60;;;14.60;99.90;;;;;;4425826;32;20089;-65
2023/01/02 13:08:04;;;;;;;0.57;0.57;;;14.70;99.90;;;;;;4440090;32;20153;-65